Time;durP1;ratioP1;P1;durP2;ratioP2;P2;SDS_P1;SDS_P2;PMS_P1;PMS_P2;Temp;Humidity;BMP_temperature;BMP_pressure;BME280_temperature;BME280_humidity;BME280_pressure;Samples;Min_cycle;Max_cycle;Signal;HPM_P1;HPM_P2
2022/03/04 00:02:04;;;;;;;39.87;18.00;;;;;;;-0.41;69.73;100958.22;8295083;34;20167;-75
2022/03/04 00:07:09;;;;;;;44.35;18.90;;;;;;;-0.52;70.27;100958.53;8302805;34;20438;-75
2022/03/04 00:12:12;;;;;;;45.53;21.40;;;;;;;-0.45;70.24;100968.00;8302339;34;20497;-75
2022/03/04 00:17:15;;;;;;;42.53;18.67;;;;;;;-0.42;70.25;100981.13;8302432;34;20428;-75
2022/03/04 00:22:20;;;;;;;36.43;17.63;;;;;;;-0.61;70.06;100972.81;8299861;34;20435;-75
2022/03/04 00:27:23;;;;;;;38.17;18.03;;;;;;;-0.77;70.53;100988.19;8302409;34;20210;-75
2022/03/04 00:32:26;;;;;;;43.50;19.23;;;;;;;-0.54;70.58;100984.09;8302339;34;20155;-75
2022/03/04 00:37:30;;;;;;;41.77;19.77;;;;;;;-0.60;70.46;100986.91;8302967;34;20601;-75
2022/03/04 00:42:34;;;;;;;39.80;18.50;;;;;;;-0.68;70.18;100994.13;8302723;34;20444;-75
2022/03/04 00:47:37;;;;;;;42.57;19.07;;;;;;;-0.85;70.61;100990.13;8303275;34;20498;-75
2022/03/04 00:52:42;;;;;;;43.10;19.07;;;;;;;-1.00;70.74;101001.91;8302673;34;20426;-75
2022/03/04 00:57:45;;;;;;;39.07;19.10;;;;;;;-1.03;71.17;101001.97;8302494;34;20144;-75
2022/03/04 01:02:48;;;;;;;43.57;19.93;;;;;;;-1.05;71.62;101005.53;8302027;34;20144;-75
2022/03/04 01:07:52;;;;;;;39.53;18.23;;;;;;;-1.05;71.45;100998.50;8288199;34;20397;-75
2022/03/04 01:12:56;;;;;;;50.70;19.47;;;;;;;-1.11;71.40;101003.91;8290426;34;20132;-74
2022/03/04 01:17:59;;;;;;;37.33;17.33;;;;;;;-1.15;71.35;101002.28;8292041;34;20155;-74
2022/03/04 01:23:04;;;;;;;39.77;17.27;;;;;;;-1.15;71.58;101001.38;8313491;34;20147;-74
2022/03/04 01:28:07;;;;;;;39.47;16.97;;;;;;;-1.22;71.90;100995.38;8296240;34;20616;-75
2022/03/04 01:33:10;;;;;;;40.47;19.53;;;;;;;-1.21;71.84;100997.09;8301086;34;20689;-74
2022/03/04 01:38:14;;;;;;;45.20;18.87;;;;;;;-1.21;71.87;101002.38;8297451;34;20188;-74
2022/03/04 01:43:17;;;;;;;40.03;18.70;;;;;;;-1.44;71.30;100993.22;8294390;34;20875;-74
2022/03/04 01:48:22;;;;;;;45.07;18.63;;;;;;;-1.46;72.00;101005.56;8300739;34;20437;-74
2022/03/04 01:53:27;;;;;;;42.87;18.97;;;;;;;-1.35;71.85;100999.19;8272972;34;21127;-74
2022/03/04 01:58:30;;;;;;;45.30;18.70;;;;;;;-1.22;71.36;101008.56;8300143;34;20507;-74
2022/03/04 02:03:33;;;;;;;39.07;17.47;;;;;;;-1.30;71.03;101003.47;8278038;34;20459;-74
2022/03/04 02:08:38;;;;;;;36.63;17.60;;;;;;;-1.26;71.18;100998.97;8295176;34;20455;-74
2022/03/04 02:13:42;;;;;;;34.87;16.30;;;;;;;-1.33;70.68;101003.53;8297381;34;20285;-74
2022/03/04 02:18:46;;;;;;;35.30;16.00;;;;;;;-1.38;70.98;101002.75;8299631;34;20457;-74
2022/03/04 02:23:50;;;;;;;33.20;16.00;;;;;;;-1.43;71.22;101002.84;8252926;34;20528;-74
2022/03/04 02:28:54;;;;;;;37.53;17.80;;;;;;;-1.60;71.56;100997.06;8285718;34;20430;-74
2022/03/04 02:33:57;;;;;;;43.27;17.73;;;;;;;-1.70;71.84;100996.41;8251918;34;20155;-74
2022/03/04 02:39:01;;;;;;;43.17;18.97;;;;;;;-1.70;71.74;100990.25;8250128;34;20487;-75
2022/03/04 02:44:07;;;;;;;48.13;19.53;;;;;;;-1.73;72.09;100985.91;8250273;34;20463;-74
2022/03/04 02:49:13;;;;;;;42.97;18.17;;;;;;;-1.71;71.85;100996.44;8245355;34;20423;-74
2022/03/04 02:54:18;;;;;;;44.43;17.83;;;;;;;-1.80;71.71;101000.13;8301590;34;20161;-74
2022/03/04 02:59:21;;;;;;;38.47;17.27;;;;;;;-1.96;71.85;100989.03;8304551;34;20441;-74
2022/03/04 03:04:25;;;;;;;47.57;20.03;;;;;;;-2.14;72.75;100999.91;8303650;34;20147;-74
2022/03/04 03:09:29;;;;;;;44.37;20.07;;;;;;;-2.11;72.85;100995.47;8304138;34;20688;-74
2022/03/04 03:14:32;;;;;;;54.07;20.63;;;;;;;-2.19;73.35;100999.13;8299789;34;20430;-74
2022/03/04 03:19:35;;;;;;;45.00;18.87;;;;;;;-2.16;73.19;100999.94;8276418;34;20535;-74
2022/03/04 03:24:40;;;;;;;49.57;19.40;;;;;;;-2.16;72.91;101002.56;8298209;34;20522;-74
2022/03/04 03:29:43;;;;;;;47.53;19.27;;;;;;;-2.27;73.09;101012.44;8297048;34;20347;-74
2022/03/04 03:34:46;;;;;;;46.67;19.57;;;;;;;-2.29;73.40;101008.94;8297403;34;20470;-74
2022/03/04 03:39:52;;;;;;;51.47;20.20;;;;;;;-2.25;73.74;101020.28;8275261;34;20207;-74
2022/03/04 03:44:55;;;;;;;55.37;22.53;;;;;;;-2.19;73.22;101026.31;8302135;34;20501;-74
2022/03/04 03:49:58;;;;;;;43.27;18.07;;;;;;;-2.27;73.14;101017.69;8304397;34;20554;-74
2022/03/04 03:55:03;;;;;;;51.97;21.57;;;;;;;-2.30;73.14;101030.91;8280332;34;20544;-74
2022/03/04 04:00:09;;;;;;;45.23;18.43;;;;;;;-2.36;73.14;101029.25;8297292;34;20236;-74
2022/03/04 04:05:15;;;;;;;47.40;18.97;;;;;;;-2.35;73.20;101040.66;8297209;34;20435;-74
2022/03/04 04:10:20;;;;;;;43.30;18.20;;;;;;;-2.32;73.25;101045.84;8300119;34;20626;-74
2022/03/04 04:15:28;;;;;;;45.80;18.23;;;;;;;-2.26;73.63;101039.63;8271101;34;20150;-74
2022/03/04 04:20:31;;;;;;;51.83;20.23;;;;;;;-2.21;73.78;101057.06;8249327;34;20132;-74
2022/03/04 04:25:36;;;;;;;42.57;17.07;;;;;;;-2.08;73.66;101055.97;8245256;34;21083;-74
2022/03/04 04:30:39;;;;;;;44.33;19.83;;;;;;;-1.93;73.91;101053.94;8242808;34;20703;-74
2022/03/04 04:35:42;;;;;;;42.83;18.93;;;;;;;-1.89;73.62;101056.50;8241862;34;20977;-74
2022/03/04 04:40:46;;;;;;;46.67;18.50;;;;;;;-1.82;73.69;101054.59;8241723;34;20213;-74
2022/03/04 04:45:49;;;;;;;51.53;19.03;;;;;;;-1.65;73.49;101049.84;8241219;34;20275;-74
2022/03/04 04:50:53;;;;;;;40.37;18.63;;;;;;;-1.52;73.45;101045.22;8242491;34;20421;-74
2022/03/04 04:55:57;;;;;;;33.27;15.83;;;;;;;-1.48;73.47;101044.28;8244374;34;20464;-73
2022/03/04 05:01:00;;;;;;;38.73;16.67;;;;;;;-1.45;72.87;101038.06;8250944;34;20458;-74
2022/03/04 05:06:04;;;;;;;36.70;16.03;;;;;;;-1.50;73.21;101042.56;8245451;34;20152;-74
2022/03/04 05:11:08;;;;;;;37.27;16.27;;;;;;;-1.56;73.50;101032.13;8242939;34;20485;-74
2022/03/04 05:16:11;;;;;;;32.87;14.80;;;;;;;-1.54;73.63;101044.38;8241108;34;20750;-74
2022/03/04 05:21:16;;;;;;;36.27;15.93;;;;;;;-1.52;73.55;101052.25;8238689;34;20437;-74
2022/03/04 05:26:21;;;;;;;34.17;15.30;;;;;;;-1.56;73.86;101062.00;8215825;34;20235;-74
2022/03/04 05:31:24;;;;;;;40.63;16.60;;;;;;;-1.65;74.37;101054.25;8239285;34;20985;-74
2022/03/04 05:36:27;;;;;;;33.07;15.20;;;;;;;-1.62;74.08;101054.19;8216765;34;20160;-74
2022/03/04 05:41:32;;;;;;;35.87;14.97;;;;;;;-1.68;73.86;101056.97;8239717;34;21006;-74
2022/03/04 05:46:35;;;;;;;38.23;16.33;;;;;;;-1.72;74.29;101057.94;8238644;34;20692;-74
2022/03/04 05:51:38;;;;;;;35.33;14.40;;;;;;;-1.77;74.77;101062.41;8244298;34;20930;-73
2022/03/04 06:02:06;;;;;;;40.90;16.27;;;;;;;-1.80;75.09;101076.50;8136017;35;20550;-73
2022/03/04 06:07:10;;;;;;;37.73;17.10;;;;;;;-1.88;75.03;101081.06;8135544;35;20233;-74
2022/03/04 06:12:13;;;;;;;40.63;17.90;;;;;;;-1.72;74.85;101082.50;8088901;35;20502;-74
2022/03/04 06:17:18;;;;;;;38.23;16.77;;;;;;;-1.68;74.99;101085.94;8087044;35;20531;-74
2022/03/04 06:22:22;;;;;;;38.43;15.60;;;;;;;-1.73;74.88;101083.38;8084993;35;20294;-74
2022/03/04 06:27:25;;;;;;;37.23;15.63;;;;;;;-1.67;74.81;101093.81;8084228;35;20856;-74
2022/03/04 06:32:29;;;;;;;40.07;16.40;;;;;;;-1.50;74.64;101093.50;8093506;35;20456;-74
2022/03/04 06:37:32;;;;;;;35.07;14.07;;;;;;;-1.49;74.35;101091.72;8099275;35;20546;-74
2022/03/04 06:42:35;;;;;;;32.43;14.37;;;;;;;-1.43;74.09;101099.50;8087274;35;20508;-74
2022/03/04 06:47:40;;;;;;;37.97;15.57;;;;;;;-1.28;73.76;101091.28;8101497;35;20450;-74
2022/03/04 06:52:43;;;;;;;34.67;14.03;;;;;;;-1.19;73.58;101095.50;8102513;35;20537;-74
2022/03/04 06:57:48;;;;;;;32.03;13.53;;;;;;;-1.03;73.46;101081.09;8110448;35;20421;-74
2022/03/04 07:02:53;;;;;;;39.03;15.57;;;;;;;-1.05;73.13;101092.56;8108246;35;20138;-74
2022/03/04 07:07:56;;;;;;;33.00;14.83;;;;;;;-1.04;73.24;101089.91;8109082;35;20409;-74
2022/03/04 07:12:59;;;;;;;38.57;15.57;;;;;;;-1.00;72.91;101103.88;8111642;35;20437;-74
2022/03/04 07:18:03;;;;;;;41.77;15.80;;;;;;;-1.07;72.67;101104.91;8113478;35;20511;-74
2022/03/04 07:23:06;;;;;;;40.93;16.50;;;;;;;-1.33;73.82;101110.75;8103388;35;20429;-73
2022/03/04 07:28:10;;;;;;;36.37;14.07;;;;;;;-1.22;73.81;101111.38;8093786;35;20694;-74
2022/03/04 07:33:15;;;;;;;35.50;15.73;;;;;;;-0.88;73.07;101113.28;8101429;35;20453;-74
2022/03/04 07:38:18;;;;;;;36.37;14.27;;;;;;;-0.83;73.50;101121.97;8114396;35;20147;-72
2022/03/04 07:43:22;;;;;;;36.77;14.40;;;;;;;-0.21;72.35;101114.38;8122606;35;20154;-74
2022/03/04 07:48:27;;;;;;;26.23;12.23;;;;;;;-0.25;70.45;101119.75;8124173;35;20677;-73
2022/03/04 07:53:31;;;;;;;34.87;15.63;;;;;;;-0.58;70.93;101122.28;8112991;35;20449;-74
2022/03/04 07:58:34;;;;;;;34.93;15.03;;;;;;;-0.38;70.65;101109.50;8108876;35;20951;-74
2022/03/04 08:03:39;;;;;;;36.97;14.90;;;;;;;-0.45;70.30;101125.53;8099890;35;20459;-73
2022/03/04 08:08:42;;;;;;;34.23;13.77;;;;;;;-0.28;70.63;101126.84;8099339;35;20476;-73
2022/03/04 08:13:45;;;;;;;32.73;15.90;;;;;;;0.03;69.21;101131.41;8106323;35;20529;-74
2022/03/04 08:18:50;;;;;;;33.80;14.33;;;;;;;-0.18;69.88;101129.28;8096133;35;20213;-74
2022/03/04 08:23:53;;;;;;;34.60;15.73;;;;;;;-0.04;69.30;101128.94;8085949;35;20198;-74
2022/03/04 08:28:56;;;;;;;37.17;17.30;;;;;;;0.19;68.25;101130.97;8082704;35;20446;-74
2022/03/04 08:34:00;;;;;;;41.00;16.03;;;;;;;0.22;67.92;101131.78;8081782;35;20533;-73
2022/03/04 08:39:05;;;;;;;36.67;16.57;;;;;;;0.88;67.92;101124.69;8081909;35;20483;-74
2022/03/04 08:44:09;;;;;;;32.00;14.50;;;;;;;2.07;63.79;101138.59;8091120;35;20134;-74
2022/03/04 08:49:13;;;;;;;34.43;15.20;;;;;;;1.99;62.09;101127.38;8097870;35;20358;-72
2022/03/04 08:54:16;;;;;;;40.60;16.97;;;;;;;1.98;62.14;101128.31;8099449;35;20800;-73
2022/03/04 08:59:20;;;;;;;39.63;15.40;;;;;;;2.52;60.73;101127.28;8098934;35;20558;-72
2022/03/04 09:04:24;;;;;;;36.10;16.23;;;;;;;2.75;60.20;101130.97;8089397;35;20190;-73
2022/03/04 09:09:28;;;;;;;34.87;16.03;;;;;;;3.25;58.40;101109.59;8095174;35;20142;-72
2022/03/04 09:14:31;;;;;;;30.37;15.23;;;;;;;3.57;56.92;101118.09;8095609;35;20480;-72
2022/03/04 09:19:35;;;;;;;29.38;14.52;;;;;;;3.75;56.67;101121.78;8100801;35;20265;-73
2022/03/04 09:24:58;;;;;;;33.83;13.83;;;;;;;4.25;55.42;101122.34;8098195;35;20424;-73
2022/03/04 09:30:02;;;;;;;28.20;13.83;;;;;;;4.05;54.52;101127.63;8100938;35;20402;-73
2022/03/04 09:35:07;;;;;;;28.07;12.13;;;;;;;4.25;54.75;101119.69;8108821;35;20938;-72
2022/03/04 09:40:12;;;;;;;31.20;14.20;;;;;;;4.29;53.49;101131.03;8107029;35;20222;-74
2022/03/04 09:45:15;;;;;;;28.17;13.48;;;;;;;4.41;53.55;101125.19;8109998;35;21013;-74
2022/03/04 09:50:20;;;;;;;26.27;12.95;;;;;;;4.74;52.66;101140.59;8114225;35;20566;-74
2022/03/04 09:55:23;;;;;;;30.17;13.98;;;;;;;5.04;52.41;101136.56;8105078;35;20226;-74
2022/03/04 10:00:27;;;;;;;25.20;12.35;;;;;;;5.31;51.63;101133.56;8097328;35;20454;-74
2022/03/04 10:05:31;;;;;;;24.27;12.95;;;;;;;5.46;51.62;101134.66;8107832;35;20442;-72
2022/03/04 10:10:35;;;;;;;26.77;12.87;;;;;;;5.29;51.25;101130.09;8099124;35;21054;-75
2022/03/04 10:15:38;;;;;;;28.65;12.73;;;;;;;5.50;51.20;101122.91;8105331;35;20400;-72
2022/03/04 10:20:44;;;;;;;24.05;12.38;;;;;;;5.65;50.11;101127.50;8087765;35;20460;-72
2022/03/04 10:25:50;;;;;;;27.80;11.90;;;;;;;5.17;51.73;101136.03;8063714;35;20495;-72
2022/03/04 10:30:56;;;;;;;27.42;12.63;;;;;;;5.73;49.89;101125.31;8088456;35;20682;-72
2022/03/04 10:36:20;;;;;;;25.08;13.65;;;;;;;5.61;50.06;101130.38;8086970;35;20941;-72
2022/03/04 10:41:29;;;;;;;22.67;9.75;;;;;;;5.67;49.99;101138.94;8087786;35;20443;-72
2022/03/04 10:46:57;;;;;;;27.50;11.60;;;;;;;5.97;48.92;101134.84;8139098;35;20751;-72
2022/03/04 10:52:09;;;;;;;25.17;10.75;;;;;;;6.17;48.22;101119.56;8135090;35;20542;-72
2022/03/04 10:57:12;;;;;;;25.00;12.57;;;;;;;6.95;47.17;101119.97;8121454;35;20246;-74
2022/03/04 11:02:15;;;;;;;23.77;11.93;;;;;;;7.18;46.29;101117.81;8145039;35;20622;-74
2022/03/04 11:07:20;;;;;;;26.25;13.02;;;;;;;7.32;45.63;101125.09;8138732;35;20556;-74
2022/03/04 11:12:23;;;;;;;24.13;10.25;;;;;;;8.05;45.98;101115.53;8139732;35;20557;-74
2022/03/04 11:17:26;;;;;;;25.15;12.02;;;;;;;7.93;44.62;101117.13;8137473;35;21175;-72
2022/03/04 11:22:31;;;;;;;24.75;12.10;;;;;;;8.12;44.36;101111.53;8138201;35;21095;-72
2022/03/04 11:27:41;;;;;;;22.83;11.88;;;;;;;8.48;43.90;101114.81;8141612;35;20616;-72
2022/03/04 11:32:44;;;;;;;24.25;10.35;;;;;;;9.15;42.67;101107.06;8155369;35;20613;-74
2022/03/04 11:37:51;;;;;;;22.98;11.68;;;;;;;9.08;41.91;101095.91;8149156;35;20143;-74
2022/03/04 11:42:55;;;;;;;21.90;11.15;;;;;;;9.51;41.74;101103.84;8142390;35;21024;-74
2022/03/04 11:48:04;;;;;;;23.42;12.07;;;;;;;10.64;39.25;101099.84;8141610;35;20519;-73
2022/03/04 11:53:15;;;;;;;21.75;11.02;;;;;;;11.03;39.54;101099.72;8118056;35;20158;-73
2022/03/04 11:58:18;;;;;;;22.55;11.65;;;;;;;11.51;37.89;101085.53;8185488;28;20553;-72
2022/03/04 12:03:22;;;;;;;23.85;11.43;;;;;;;11.63;37.13;101092.69;8301472;34;20580;-72
2022/03/04 12:08:39;;;;;;;23.38;12.02;;;;;;;10.95;38.71;101091.34;8301199;34;20459;-72
2022/03/04 12:13:43;;;;;;;28.13;13.55;;;;;;;11.02;39.35;101097.13;8301372;34;20529;-72
2022/03/04 12:18:48;;;;;;;21.95;11.85;;;;;;;11.94;37.69;101090.41;8302625;34;20162;-72
2022/03/04 12:24:00;;;;;;;23.35;11.38;;;;;;;11.72;38.17;101083.06;8304291;34;20144;-73
2022/03/04 12:29:19;;;;;;;23.10;11.43;;;;;;;11.39;38.10;101073.84;8302641;34;20242;-72
2022/03/04 12:34:26;;;;;;;24.88;12.38;;;;;;;11.81;37.36;101076.13;8304078;34;20558;-72
2022/03/04 12:39:37;;;;;;;22.20;11.13;;;;;;;11.46;38.35;101075.13;8305044;34;20460;-73
2022/03/04 12:44:42;;;;;;;21.13;10.85;;;;;;;11.49;37.98;101074.00;8315310;34;20472;-72
2022/03/04 12:49:46;;;;;;;20.70;10.27;;;;;;;12.10;37.38;101077.47;8316158;34;20151;-72
2022/03/04 12:54:50;;;;;;;21.45;12.27;;;;;;;12.00;37.12;101076.47;8311637;34;20980;-72
2022/03/04 12:59:54;;;;;;;25.35;11.90;;;;;;;11.90;37.01;101078.13;8316938;34;20472;-72
2022/03/04 13:04:58;;;;;;;21.25;10.88;;;;;;;12.20;36.83;101068.69;8316298;34;20326;-73
2022/03/04 13:10:05;;;;;;;20.30;10.25;;;;;;;12.07;36.58;101066.09;8303802;34;20148;-73
2022/03/04 13:15:11;;;;;;;20.65;10.80;;;;;;;11.01;38.13;101061.31;8305269;34;20469;-73
2022/03/04 13:20:14;;;;;;;21.85;10.85;;;;;;;10.52;40.26;101074.69;8311696;34;21154;-73
2022/03/04 13:25:29;;;;;;;21.13;10.60;;;;;;;11.21;38.82;101062.59;8300966;34;20525;-73
2022/03/04 13:30:47;;;;;;;25.52;12.82;;;;;;;11.46;38.38;101063.47;8301923;34;20508;-73
2022/03/04 13:35:55;;;;;;;20.70;11.23;;;;;;;13.04;36.00;101057.53;8296792;34;20485;-73
2022/03/04 13:41:00;;;;;;;20.20;10.05;;;;;;;13.57;35.21;101064.94;8298231;34;20858;-73
2022/03/04 13:46:12;;;;;;;18.85;10.23;;;;;;;14.36;33.65;101062.72;8296004;34;20542;-73
2022/03/04 13:51:15;;;;;;;18.63;10.23;;;;;;;14.18;33.00;101075.13;8285269;34;20148;-74
2022/03/04 13:56:20;;;;;;;20.40;9.55;;;;;;;14.08;33.17;101066.09;8295911;34;20148;-74
2022/03/04 14:01:24;;;;;;;21.98;10.57;;;;;;;12.98;34.27;101065.25;8295238;34;20993;-73
2022/03/04 14:06:29;;;;;;;15.45;8.95;;;;;;;12.60;34.56;101069.16;8293458;34;20675;-73
2022/03/04 14:11:34;;;;;;;14.23;8.05;;;;;;;13.13;34.03;101058.63;8295987;34;20529;-73
2022/03/04 14:16:37;;;;;;;15.48;7.90;;;;;;;12.83;34.07;101064.63;8296512;34;20147;-74
2022/03/04 14:21:40;;;;;;;12.32;7.43;;;;;;;12.88;33.64;101051.66;8299119;34;20625;-73
2022/03/04 14:26:44;;;;;;;15.32;7.30;;;;;;;12.38;34.25;101048.44;8300131;34;20527;-74
2022/03/04 14:31:48;;;;;;;17.00;9.13;;;;;;;12.17;34.98;101043.69;8301706;34;21149;-74
2022/03/04 14:36:51;;;;;;;15.70;7.20;;;;;;;12.27;34.93;101057.31;8297816;34;20144;-73
2022/03/04 14:42:15;;;;;;;14.57;7.72;;;;;;;12.43;34.57;101062.41;8297959;34;20629;-74
2022/03/04 14:47:19;;;;;;;12.18;6.97;;;;;;;11.15;36.10;101052.28;8294984;34;20453;-74
2022/03/04 14:52:22;;;;;;;18.95;8.65;;;;;;;11.03;37.48;101058.53;8291697;34;20997;-73
2022/03/04 14:57:27;;;;;;;17.27;8.30;;;;;;;10.52;37.78;101046.00;8291415;34;20423;-73
2022/03/04 15:02:30;;;;;;;14.00;7.97;;;;;;;10.30;38.12;101056.53;8295792;34;20183;-73
2022/03/04 15:07:33;;;;;;;14.05;7.88;;;;;;;9.92;38.47;101070.75;8298314;34;20640;-74
2022/03/04 15:12:38;;;;;;;19.58;8.52;;;;;;;8.90;41.06;101054.19;8291537;34;20477;-73
2022/03/04 15:17:42;;;;;;;15.45;7.97;;;;;;;8.73;41.63;101060.59;8303977;34;20885;-74
2022/03/04 15:22:47;;;;;;;16.10;8.35;;;;;;;8.45;41.57;101058.72;8304332;34;20147;-73
2022/03/04 15:27:52;;;;;;;16.70;8.68;;;;;;;7.70;43.43;101066.75;8303747;34;20407;-73
2022/03/04 15:32:55;;;;;;;15.73;9.02;;;;;;;7.59;43.66;101056.69;8303883;34;20457;-73
2022/03/04 15:37:58;;;;;;;16.33;7.75;;;;;;;7.49;43.25;101060.84;8303162;34;20466;-73
2022/03/04 15:43:06;;;;;;;17.13;9.18;;;;;;;7.26;44.43;101060.31;8301765;34;20198;-73
2022/03/04 15:48:10;;;;;;;14.27;8.60;;;;;;;7.24;44.74;101045.31;8298792;34;20445;-73
2022/03/04 15:53:14;;;;;;;17.50;8.85;;;;;;;6.73;46.23;101048.13;8291443;34;20567;-73
2022/03/04 15:58:19;;;;;;;15.38;8.18;;;;;;;6.71;46.29;101060.69;8302417;34;20473;-73
2022/03/04 16:03:22;;;;;;;17.83;9.20;;;;;;;6.18;47.26;101061.72;8302487;34;20235;-74
2022/03/04 16:08:25;;;;;;;16.77;9.20;;;;;;;6.26;47.94;101051.53;8303480;34;20144;-74
2022/03/04 16:13:29;;;;;;;14.52;8.18;;;;;;;6.25;47.68;101063.13;8303205;34;20187;-73
2022/03/04 16:18:33;;;;;;;19.17;8.80;;;;;;;5.40;49.74;101065.66;8296817;34;20926;-73
2022/03/04 16:23:37;;;;;;;15.52;8.68;;;;;;;5.53;49.10;101058.78;8266125;34;20519;-73
2022/03/04 16:28:41;;;;;;;14.73;7.88;;;;;;;5.72;49.63;101058.75;8252079;34;20585;-73
2022/03/04 16:33:44;;;;;;;13.57;7.78;;;;;;;5.67;49.68;101047.44;8249958;34;20423;-73
2022/03/04 16:38:48;;;;;;;16.88;8.30;;;;;;;5.42;50.55;101064.63;8220748;34;20523;-73
2022/03/04 16:43:52;;;;;;;16.70;9.20;;;;;;;5.16;50.76;101059.72;8213662;34;20513;-73
2022/03/04 16:48:56;;;;;;;20.85;10.27;;;;;;;5.12;51.47;101064.31;8220926;34;20954;-74
2022/03/04 16:53:59;;;;;;;15.52;8.70;;;;;;;4.79;52.26;101069.38;8233865;34;20450;-74
2022/03/04 16:59:03;;;;;;;18.52;9.48;;;;;;;4.22;53.18;101057.75;8212703;34;20449;-73
2022/03/04 17:04:26;;;;;;;19.17;9.32;;;;;;;3.84;53.61;101055.84;8214971;34;20420;-74
2022/03/04 17:09:29;;;;;;;21.95;12.20;;;;;;;3.43;55.11;101062.88;8214678;34;20475;-73
2022/03/04 17:14:34;;;;;;;19.20;10.60;;;;;;;3.19;54.94;101054.94;8207621;34;20882;-73
2022/03/04 17:19:37;;;;;;;19.93;11.17;;;;;;;3.08;56.13;101061.63;8215268;34;20430;-73
2022/03/04 17:24:42;;;;;;;21.13;11.37;;;;;;;2.71;57.35;101074.47;8216130;34;20251;-73
2022/03/04 17:29:47;;;;;;;21.00;11.07;;;;;;;2.76;56.81;101080.47;8213449;34;20878;-74
2022/03/04 17:34:50;;;;;;;19.77;10.33;;;;;;;2.59;58.38;101086.41;8216046;34;21083;-73
2022/03/04 17:39:56;;;;;;;15.53;8.73;;;;;;;2.54;58.34;101083.06;8216608;34;20419;-73
2022/03/04 17:45:01;;;;;;;14.85;8.50;;;;;;;2.37;58.69;101085.44;8217063;34;20140;-73
2022/03/04 17:50:05;;;;;;;16.40;7.97;;;;;;;2.22;58.75;101094.78;8217887;34;20353;-73
2022/03/04 17:55:11;;;;;;;16.93;8.13;;;;;;;2.44;57.80;101088.72;8220790;34;20440;-73
2022/03/04 18:00:16;;;;;;;16.20;7.70;;;;;;;2.32;58.09;101090.88;8227501;34;20432;-73
2022/03/04 18:05:20;;;;;;;12.10;6.63;;;;;;;2.20;58.12;101095.78;8226897;34;20425;-73
2022/03/04 18:10:28;;;;;;;13.03;6.97;;;;;;;1.95;58.32;101089.53;8235868;34;20148;-73
2022/03/04 18:15:32;;;;;;;14.77;6.63;;;;;;;1.94;58.62;101086.91;8305090;34;20247;-73
2022/03/04 18:20:35;;;;;;;17.30;7.93;;;;;;;1.82;58.94;101106.75;8254496;34;20641;-72
2022/03/04 18:25:40;;;;;;;16.47;7.90;;;;;;;1.71;59.22;101101.81;8226918;34;20336;-72
2022/03/04 18:30:44;;;;;;;17.90;9.27;;;;;;;1.70;59.49;101107.13;8227245;34;20449;-73
2022/03/04 18:35:47;;;;;;;15.13;7.33;;;;;;;1.54;59.53;101108.53;8226346;34;20370;-73
2022/03/04 18:40:50;;;;;;;15.13;7.60;;;;;;;1.49;60.11;101114.88;8227447;34;20528;-73
2022/03/04 18:45:55;;;;;;;14.40;7.47;;;;;;;1.47;60.20;101118.47;8225491;34;20453;-73
2022/03/04 18:51:00;;;;;;;13.63;8.27;;;;;;;1.40;60.41;101123.13;8225422;34;20133;-73
2022/03/04 18:56:04;;;;;;;16.90;8.60;;;;;;;1.28;60.69;101123.47;8224614;34;20407;-73
2022/03/04 19:01:08;;;;;;;19.50;8.27;;;;;;;1.24;61.07;101125.38;8225131;34;20533;-73
2022/03/04 19:06:12;;;;;;;15.27;8.60;;;;;;;1.27;61.15;101122.63;8217725;34;20140;-72
2022/03/04 19:11:15;;;;;;;17.37;8.23;;;;;;;1.17;61.02;101125.59;8223161;34;20243;-73
2022/03/04 19:16:19;;;;;;;15.83;8.10;;;;;;;1.23;60.69;101135.97;8224914;34;20432;-73
2022/03/04 19:21:23;;;;;;;15.33;7.90;;;;;;;1.13;60.99;101127.47;8225061;34;20450;-73
2022/03/04 19:26:26;;;;;;;17.17;10.00;;;;;;;1.05;60.85;101124.19;8215776;34;20468;-73
2022/03/04 19:31:31;;;;;;;19.20;8.90;;;;;;;1.06;61.03;101128.56;8225730;34;20476;-73
2022/03/04 19:36:34;;;;;;;18.30;8.93;;;;;;;0.93;61.21;101121.88;8225217;34;20459;-73
2022/03/04 19:41:38;;;;;;;21.00;9.70;;;;;;;1.11;60.79;101125.78;8224047;34;20523;-73
2022/03/04 19:46:43;;;;;;;20.27;9.33;;;;;;;1.04;61.39;101133.00;8223777;34;20430;-72
2022/03/04 19:51:48;;;;;;;35.57;16.83;;;;;;;1.10;60.75;101135.50;8224030;34;20121;-73
2022/03/04 19:56:52;;;;;;;26.47;13.60;;;;;;;1.03;60.95;101134.78;8223592;34;20239;-73
2022/03/04 20:01:58;;;;;;;22.73;10.43;;;;;;;0.99;61.24;101122.59;8224383;34;20342;-73
2022/03/04 20:07:01;;;;;;;21.67;10.90;;;;;;;0.97;61.33;101116.47;8224286;34;20477;-73
2022/03/04 20:12:06;;;;;;;21.90;10.57;;;;;;;0.97;61.21;101127.06;8223161;34;20750;-73
2022/03/04 20:17:11;;;;;;;22.97;10.60;;;;;;;0.96;61.44;101127.97;8223102;34;20507;-73
2022/03/04 20:22:14;;;;;;;24.57;12.10;;;;;;;0.92;61.71;101128.09;8212661;34;20171;-74
2022/03/04 20:27:17;;;;;;;24.37;11.13;;;;;;;0.79;61.58;101130.22;8223445;34;20577;-74
2022/03/04 20:32:22;;;;;;;18.73;9.03;;;;;;;0.61;61.12;101131.63;8223154;34;20597;-74
2022/03/04 20:37:25;;;;;;;15.47;8.60;;;;;;;0.59;60.86;101131.66;8224263;34;20481;-74
2022/03/04 20:42:28;;;;;;;14.70;7.27;;;;;;;0.59;60.33;101128.13;8214919;34;20438;-74
2022/03/04 20:47:33;;;;;;;10.17;6.07;;;;;;;0.62;59.96;101122.75;8215395;34;20641;-75
2022/03/04 20:52:36;;;;;;;15.30;7.33;;;;;;;0.61;60.29;101121.03;8223079;34;20416;-74
2022/03/04 20:57:39;;;;;;;15.63;7.37;;;;;;;0.47;60.60;101126.72;8222459;34;20470;-74
2022/03/04 21:02:43;;;;;;;11.70;6.40;;;;;;;0.51;60.81;101124.84;8222233;34;20459;-74
2022/03/04 21:07:47;;;;;;;11.37;6.13;;;;;;;0.46;61.29;101130.25;8222126;34;20556;-75
2022/03/04 21:12:50;;;;;;;12.87;5.63;;;;;;;0.44;61.21;101128.53;8222231;34;20913;-74
2022/03/04 21:17:54;;;;;;;13.30;5.70;;;;;;;0.35;61.18;101116.44;8222405;34;20837;-74
2022/03/04 21:22:59;;;;;;;14.13;7.10;;;;;;;0.27;61.79;101121.06;8223257;34;20473;-73
2022/03/04 21:28:02;;;;;;;24.27;10.77;;;;;;;0.13;61.97;101124.94;8226432;34;20505;-73
2022/03/04 21:33:07;;;;;;;13.70;8.67;;;;;;;0.11;62.32;101121.50;8228116;34;20430;-73
2022/03/04 21:38:10;;;;;;;17.97;8.63;;;;;;;0.01;62.41;101121.78;8229676;34;20393;-74
2022/03/04 21:43:13;;;;;;;10.80;6.93;;;;;;;-0.01;62.37;101124.44;8218563;34;20874;-73
2022/03/04 21:48:18;;;;;;;23.53;9.67;;;;;;;-0.15;63.08;101122.16;8230722;34;20413;-73
2022/03/04 21:53:23;;;;;;;13.63;6.53;;;;;;;-0.21;62.97;101124.94;8230011;34;20401;-73
2022/03/04 21:58:26;;;;;;;11.80;6.17;;;;;;;-0.25;63.16;101120.63;8228074;34;20677;-74
2022/03/04 22:03:31;;;;;;;13.70;6.33;;;;;;;-0.29;63.72;101122.47;8228632;34;20175;-74
2022/03/04 22:08:34;;;;;;;17.07;9.40;;;;;;;-0.35;63.69;101117.34;8229525;34;20495;-73
2022/03/04 22:13:37;;;;;;;23.37;11.23;;;;;;;-0.42;63.63;101125.44;8227376;34;20132;-73
2022/03/04 22:18:42;;;;;;;15.80;8.47;;;;;;;-0.33;63.46;101110.28;8220382;34;20708;-73
2022/03/04 22:23:45;;;;;;;20.40;10.70;;;;;;;-0.29;63.62;101121.63;8225995;34;20121;-73
2022/03/04 22:28:49;;;;;;;18.60;10.50;;;;;;;-0.35;63.40;101117.34;8220637;34;20156;-73
2022/03/04 22:33:53;;;;;;;25.97;12.80;;;;;;;-0.41;63.54;101112.22;8222106;34;20136;-73
2022/03/04 22:38:57;;;;;;;26.17;13.03;;;;;;;-0.40;63.88;101095.47;8220894;34;20404;-74
2022/03/04 22:44:01;;;;;;;18.93;9.27;;;;;;;-0.36;63.69;101105.03;8224273;34;20660;-74
2022/03/04 22:49:05;;;;;;;16.17;8.90;;;;;;;-0.38;63.76;101096.31;8224023;34;20847;-74
2022/03/04 22:54:10;;;;;;;13.00;7.60;;;;;;;-0.35;63.75;101101.50;8223785;34;20517;-74
2022/03/04 22:59:14;;;;;;;18.10;8.57;;;;;;;-0.38;63.53;101104.22;8223769;34;20502;-74
2022/03/04 23:09:39;;;;;;;18.40;9.00;;;;;;;-0.59;64.17;101095.03;8223676;34;20420;-74
2022/03/04 23:14:42;;;;;;;11.90;7.23;;;;;;;-0.70;64.19;101088.28;8223179;34;20369;-74
2022/03/04 23:19:48;;;;;;;13.40;6.63;;;;;;;-0.68;64.65;101073.28;8223491;34;20929;-74
2022/03/04 23:24:51;;;;;;;11.43;6.83;;;;;;;-0.69;65.04;101082.09;8224005;34;20433;-74